Time;durP1;ratioP1;P1;durP2;ratioP2;P2;SDS_P1;SDS_P2;PMS_P1;PMS_P2;Temp;Humidity;BMP_temperature;BMP_pressure;BME280_temperature;BME280_humidity;BME280_pressure;Samples;Min_cycle;Max_cycle;Signal;HPM_P1;HPM_P2
2022/07/13 17:14:49;;;;;;;6.35;4.10;;;;;;;22.58;nan;98962.66;5071115;28;20094;-71
2022/07/13 17:17:14;;;;;;;9.52;5.32;;;;;;;22.50;nan;98958.25;5077209;28;20149;-72
2022/07/13 17:19:38;;;;;;;8.48;5.07;;;;;;;22.42;nan;98955.72;5042466;28;20425;-72
2022/07/13 17:22:03;;;;;;;7.90;4.95;;;;;;;22.38;nan;98954.41;5060366;28;20508;-72
2022/07/13 17:24:29;;;;;;;7.47;4.38;;;;;;;22.32;nan;98958.78;5026705;28;20524;-71
2022/07/13 17:26:54;;;;;;;6.65;4.13;;;;;;;22.26;nan;98958.75;5076750;28;20051;-70
2022/07/13 17:29:19;;;;;;;8.75;4.63;;;;;;;22.23;nan;98953.75;5057527;28;20047;-72
2022/07/13 17:31:44;;;;;;;6.95;4.13;;;;;;;22.19;nan;98963.31;5075293;28;20176;-75
2022/07/13 17:34:09;;;;;;;10.35;4.40;;;;;;;22.16;nan;98961.00;5041193;28;20044;-74
2022/07/13 17:36:34;;;;;;;8.80;4.28;;;;;;;22.12;nan;98963.28;5041118;28;20040;-69
2022/07/13 17:38:58;;;;;;;8.73;4.60;;;;;;;22.11;nan;98963.50;5057819;28;20031;-74
2022/07/13 17:41:24;;;;;;;8.05;4.25;;;;;;;22.05;nan;98960.50;5055244;28;20853;-73
2022/07/13 17:43:48;;;;;;;7.28;4.07;;;;;;;22.01;nan;98961.94;5056273;28;20798;-77
2022/07/13 17:46:13;;;;;;;8.55;4.07;;;;;;;21.98;nan;98950.63;5058627;28;20399;-73
2022/07/13 17:48:38;;;;;;;8.32;4.60;;;;;;;21.92;nan;98957.69;5024574;28;20031;-77
2022/07/13 17:51:03;;;;;;;10.10;5.03;;;;;;;21.91;nan;98961.44;5059315;28;20047;-76
2022/07/13 17:53:28;;;;;;;5.78;4.10;;;;;;;21.85;nan;98962.25;5076125;28;20031;-76
2022/07/13 17:55:53;;;;;;;10.00;4.28;;;;;;;21.80;nan;98959.25;5057828;28;20043;-77
2022/07/13 17:58:18;;;;;;;11.90;7.28;;;;;;;21.73;nan;98956.53;5075708;28;20035;-76
2022/07/13 18:00:43;;;;;;;7.97;4.47;;;;;;;21.71;nan;98974.88;5024200;28;20502;-76
2022/07/13 18:03:07;;;;;;;6.65;4.70;;;;;;;21.65;nan;98962.09;5057668;28;20080;-77
2022/07/13 18:05:32;;;;;;;7.80;5.05;;;;;;;21.60;nan;98969.13;5040888;28;20044;-76
2022/07/13 18:07:57;;;;;;;9.98;4.88;;;;;;;21.57;nan;98977.66;5057698;28;20060;-76
2022/07/13 18:10:22;;;;;;;6.93;4.22;;;;;;;21.55;nan;98972.47;5057767;28;20412;-76
2022/07/13 18:12:47;;;;;;;8.57;3.92;;;;;;;21.53;nan;98966.38;5057897;28;20405;-76
2022/07/13 18:15:12;;;;;;;7.20;4.45;;;;;;;21.50;nan;98966.75;5040587;28;20082;-76
2022/07/13 18:17:38;;;;;;;7.18;4.38;;;;;;;21.49;nan;98967.78;5076112;28;20067;-75
2022/07/13 18:20:04;;;;;;;11.32;5.72;;;;;;;21.48;nan;98973.41;5042178;28;20524;-77
2022/07/13 18:22:29;;;;;;;12.63;4.88;;;;;;;21.43;nan;98965.88;5068292;28;20880;-75
2022/07/13 18:24:54;;;;;;;13.75;4.60;;;;;;;21.36;nan;98968.53;5069368;28;20496;-75
2022/07/13 18:27:19;;;;;;;9.48;5.07;;;;;;;21.36;nan;98973.94;5067582;28;20035;-76
2022/07/13 18:29:43;;;;;;;6.78;4.07;;;;;;;21.31;nan;98962.00;5075725;28;20051;-75
2022/07/13 18:32:10;;;;;;;10.52;5.95;;;;;;;21.26;nan;98968.00;5040855;28;20047;-75
2022/07/13 18:34:35;;;;;;;9.15;4.68;;;;;;;21.21;nan;98965.06;5057337;28;20046;-75
2022/07/13 18:37:00;;;;;;;9.27;4.93;;;;;;;21.16;nan;98955.78;5057281;28;20039;-75
2022/07/13 18:39:24;;;;;;;8.77;5.00;;;;;;;21.16;nan;98966.63;5023697;28;20045;-76
2022/07/13 18:41:50;;;;;;;12.20;5.32;;;;;;;21.12;nan;98963.44;5075863;28;20118;-76
2022/07/13 18:44:15;;;;;;;16.52;5.88;;;;;;;21.10;nan;98960.13;5044288;28;20039;-73
2022/07/13 18:46:40;;;;;;;8.45;5.22;;;;;;;21.05;nan;98949.00;5081436;28;20050;-73
2022/07/13 18:49:08;;;;;;;14.23;9.18;;;;;;;21.01;nan;98958.53;5049206;28;20040;-75
2022/07/13 18:51:32;;;;;;;10.38;4.95;;;;;;;20.95;nan;98962.03;5025738;28;20526;-73
2022/07/13 18:53:58;;;;;;;9.27;5.70;;;;;;;20.90;nan;98954.47;5060356;28;20598;-73
2022/07/13 18:56:22;;;;;;;9.82;5.30;;;;;;;20.85;nan;98962.34;5042671;28;20047;-74
2022/07/13 18:58:48;;;;;;;19.75;6.65;;;;;;;20.80;nan;98956.66;5025261;28;20047;-73
2022/07/13 19:01:13;;;;;;;16.55;6.45;;;;;;;20.75;nan;98952.88;5005058;28;20032;-73
2022/07/13 19:03:39;;;;;;;19.52;7.00;;;;;;;20.69;nan;98959.03;5005061;28;20047;-73
2022/07/13 19:06:05;;;;;;;14.57;6.10;;;;;;;20.61;nan;98960.84;5021109;28;20502;-73
2022/07/13 19:08:30;;;;;;;17.05;6.10;;;;;;;20.55;nan;98964.28;5003875;28;20052;-72
2022/07/13 19:10:56;;;;;;;15.55;6.30;;;;;;;20.51;nan;98957.59;5038002;28;20131;-71
2022/07/13 19:13:20;;;;;;;11.65;6.50;;;;;;;20.45;nan;98952.06;5021617;28;20072;-69
2022/07/13 19:15:45;;;;;;;10.25;5.15;;;;;;;20.40;nan;98955.38;5037592;28;20091;-72
2022/07/13 19:18:10;;;;;;;10.45;5.65;;;;;;;20.37;nan;98961.16;5020641;28;20032;-66
2022/07/13 19:20:36;;;;;;;12.50;5.85;;;;;;;20.32;nan;98952.72;5038320;28;20531;-64
2022/07/13 19:23:01;;;;;;;13.65;5.45;;;;;;;20.30;nan;98954.78;5023986;28;20064;-72
2022/07/13 19:28:09;;;;;;;10.25;6.10;;;;;;;20.25;nan;98959.91;5025261;28;20055;-71
2022/07/13 19:30:35;;;;;;;11.68;6.25;;;;;;;20.22;nan;98957.56;5031673;28;20543;-68
2022/07/13 19:33:01;;;;;;;14.15;6.68;;;;;;;20.19;nan;98957.97;5069129;28;20681;-69
2022/07/13 19:35:26;;;;;;;12.38;5.90;;;;;;;20.10;nan;98957.22;5069898;28;20063;-71
2022/07/13 19:37:51;;;;;;;10.00;5.35;;;;;;;20.08;nan;98959.28;5036927;28;20063;-68
2022/07/13 19:40:16;;;;;;;13.85;5.43;;;;;;;20.05;nan;98961.50;5038075;28;20040;-69
2022/07/13 19:42:41;;;;;;;7.95;4.93;;;;;;;19.99;nan;98954.97;5069000;28;20066;-72
2022/07/13 19:45:07;;;;;;;11.40;5.93;;;;;;;19.97;nan;98956.19;5049606;28;20044;-70
2022/07/13 19:47:33;;;;;;;8.52;5.07;;;;;;;19.92;nan;98960.28;5031292;28;20039;-70
2022/07/13 19:49:57;;;;;;;9.48;6.22;;;;;;;19.86;nan;98947.50;5056563;28;20057;-70
2022/07/13 19:52:22;;;;;;;10.23;5.43;;;;;;;19.81;nan;98944.53;5049829;28;20047;-69
2022/07/13 19:54:47;;;;;;;25.25;16.60;;;;;;;19.75;nan;98939.84;5043020;28;20036;-69
2022/07/13 19:57:12;;;;;;;11.57;6.72;;;;;;;19.71;nan;98935.84;5039691;28;20046;-70
2022/07/13 19:59:38;;;;;;;10.27;5.53;;;;;;;19.70;nan;98953.09;5057955;28;20036;-70
2022/07/13 20:02:03;;;;;;;13.02;5.70;;;;;;;19.66;nan;98943.66;5046566;28;20043;-71
2022/07/13 20:04:28;;;;;;;12.23;5.53;;;;;;;19.64;nan;98936.78;5044937;28;20096;-71
2022/07/13 20:06:52;;;;;;;7.60;5.43;;;;;;;19.61;nan;98948.78;5022120;28;20040;-68
2022/07/13 20:09:17;;;;;;;10.68;5.60;;;;;;;19.59;nan;98961.66;5057223;28;20144;-71
2022/07/13 20:11:42;;;;;;;12.85;5.68;;;;;;;19.56;nan;98956.59;5057386;28;20075;-71
2022/07/13 20:14:07;;;;;;;17.67;6.25;;;;;;;19.54;nan;98953.25;5038777;28;20394;-71
2022/07/13 20:16:31;;;;;;;10.40;5.70;;;;;;;19.53;nan;98951.56;5057206;28;20048;-72
2022/07/13 20:18:56;;;;;;;18.23;5.63;;;;;;;19.51;nan;98959.03;5057119;28;20052;-72
2022/07/13 20:21:22;;;;;;;13.07;5.90;;;;;;;19.49;nan;98958.38;5039019;28;20052;-71
2022/07/13 20:23:47;;;;;;;18.27;6.00;;;;;;;19.48;nan;98948.53;5038722;28;20494;-72
2022/07/13 20:26:12;;;;;;;10.50;5.72;;;;;;;19.46;nan;98935.22;5038860;28;20842;-72
2022/07/13 20:28:37;;;;;;;13.90;5.75;;;;;;;19.45;nan;98947.03;5038577;28;20128;-71
2022/07/13 20:31:02;;;;;;;9.48;5.75;;;;;;;19.43;nan;98932.88;5057066;28;20048;-76
2022/07/13 20:33:30;;;;;;;9.43;5.85;;;;;;;19.42;nan;98933.88;5056724;28;20032;-71
2022/07/13 20:35:56;;;;;;;14.23;6.07;;;;;;;19.41;nan;98945.72;5038640;28;20043;-73
2022/07/13 20:38:21;;;;;;;11.52;6.13;;;;;;;19.39;nan;98942.38;5071548;28;20517;-72
2022/07/13 20:40:46;;;;;;;11.93;5.20;;;;;;;19.36;nan;98941.91;5076744;28;20509;-75
2022/07/13 20:43:11;;;;;;;12.43;5.70;;;;;;;19.34;nan;98944.78;5059194;28;20549;-74
2022/07/13 20:45:36;;;;;;;14.70;5.72;;;;;;;19.31;nan;98942.44;5058592;28;20040;-69
2022/07/13 20:48:00;;;;;;;10.48;5.82;;;;;;;19.28;nan;98940.13;5041674;28;20036;-70
2022/07/13 20:50:25;;;;;;;10.63;5.85;;;;;;;19.27;nan;98940.28;5076746;28;20044;-71
2022/07/13 20:52:50;;;;;;;11.27;6.70;;;;;;;19.22;nan;98933.56;5056100;28;20047;-83
2022/07/13 20:55:15;;;;;;;8.75;5.82;;;;;;;19.20;nan;98922.09;5031236;28;20032;-75
2022/07/13 20:57:40;;;;;;;10.27;5.60;;;;;;;19.18;nan;98937.66;5069278;28;20058;-77
2022/07/13 21:00:07;;;;;;;6.75;5.28;;;;;;;19.17;nan;98929.75;5047608;28;20071;-73
2022/07/13 21:02:33;;;;;;;8.82;5.32;;;;;;;19.13;nan;98926.56;5070067;28;20035;-78
2022/07/13 21:04:58;;;;;;;11.85;5.88;;;;;;;19.12;nan;98932.13;5067207;28;20040;-77
2022/07/13 21:07:23;;;;;;;14.95;6.75;;;;;;;19.08;nan;98928.94;5066912;28;20035;-75
2022/07/13 21:09:47;;;;;;;12.88;6.35;;;;;;;19.03;nan;98925.97;5051144;28;20048;-75
2022/07/13 21:12:12;;;;;;;13.43;5.85;;;;;;;18.96;nan;98927.69;5067762;28;20043;-76
2022/07/13 21:14:37;;;;;;;14.85;6.32;;;;;;;18.92;nan;98925.53;5066943;28;20054;-74
2022/07/13 21:17:02;;;;;;;10.43;5.90;;;;;;;18.85;nan;98936.22;5065443;28;20044;-77
2022/07/13 21:19:26;;;;;;;14.23;6.28;;;;;;;18.81;nan;98926.81;5049398;28;20082;-77
2022/07/13 21:21:51;;;;;;;11.35;6.07;;;;;;;18.79;nan;98928.84;5048376;28;20074;-77
2022/07/13 21:24:16;;;;;;;11.38;5.93;;;;;;;18.75;nan;98927.50;5031104;28;20413;-74
2022/07/13 21:26:41;;;;;;;15.25;6.22;;;;;;;18.71;nan;98931.59;5048405;28;20035;-74
2022/07/13 21:29:06;;;;;;;14.45;6.03;;;;;;;18.68;nan;98923.84;5063853;28;20050;-76
2022/07/13 21:31:31;;;;;;;12.10;6.18;;;;;;;18.67;nan;98927.56;5048623;28;20036;-74
2022/07/13 21:33:55;;;;;;;11.90;5.50;;;;;;;18.62;nan;98922.72;5067471;28;20043;-79
2022/07/13 21:36:20;;;;;;;15.98;5.97;;;;;;;18.62;nan;98924.56;5065292;28;20050;-79
2022/07/13 21:38:45;;;;;;;25.35;6.72;;;;;;;18.61;nan;98929.13;5050175;28;20050;-78
2022/07/13 21:41:09;;;;;;;11.82;5.53;;;;;;;18.61;nan;98923.72;5066912;28;20122;-75
2022/07/13 21:43:34;;;;;;;11.85;6.03;;;;;;;18.61;nan;98925.59;5066910;28;20035;-76
2022/07/13 21:45:59;;;;;;;10.90;5.97;;;;;;;18.57;nan;98925.06;5065911;28;20036;-77
2022/07/13 21:48:24;;;;;;;9.77;5.75;;;;;;;18.52;nan;98946.34;5049975;28;20039;-74
2022/07/13 21:50:48;;;;;;;9.05;6.13;;;;;;;18.50;nan;98922.25;5066884;28;20046;-74
2022/07/13 21:53:13;;;;;;;9.88;5.90;;;;;;;18.45;nan;98923.78;5069374;28;20026;-76
2022/07/13 21:55:38;;;;;;;9.55;5.60;;;;;;;18.40;nan;98923.47;5077817;28;20047;-80
2022/07/13 21:58:03;;;;;;;13.00;5.40;;;;;;;18.37;nan;98921.97;5078559;28;20050;-74
2022/07/13 22:00:28;;;;;;;11.23;5.43;;;;;;;18.35;nan;98923.16;5067065;28;20089;-73
2022/07/13 22:02:53;;;;;;;11.27;6.57;;;;;;;18.33;nan;98923.34;5039780;28;20100;-80
2022/07/13 22:05:21;;;;;;;14.95;7.80;;;;;;;18.32;nan;98916.25;5050202;28;20075;-76
2022/07/13 22:07:46;;;;;;;8.25;5.47;;;;;;;18.26;nan;98916.97;5031393;28;20073;-76
2022/07/13 22:10:48;;;;;;;8.90;5.38;;;;;;;18.31;nan;98917.28;5048320;28;20075;-74
2022/07/13 22:13:50;;;;;;;14.93;6.78;;;;;;;18.30;nan;98918.28;5066401;28;20044;-76
2022/07/13 22:16:52;;;;;;;11.45;6.68;;;;;;;18.27;nan;98913.25;5044660;28;20623;-73
2022/07/13 22:19:54;;;;;;;12.88;6.07;;;;;;;18.23;nan;98924.56;5018199;28;20048;-73
2022/07/13 22:22:57;;;;;;;15.80;6.68;;;;;;;18.17;nan;98918.03;5041412;28;20031;-74
2022/07/13 22:25:59;;;;;;;11.35;5.63;;;;;;;18.12;nan;98917.69;5054911;28;20044;-74
2022/07/13 22:29:02;;;;;;;10.05;5.55;;;;;;;18.07;nan;98915.53;5023290;28;20047;-73
2022/07/13 22:32:04;;;;;;;10.48;5.72;;;;;;;18.03;nan;98913.38;5022107;28;20052;-73
2022/07/13 22:35:06;;;;;;;11.05;5.88;;;;;;;17.99;nan;98906.63;5037315;28;20417;-76
2022/07/13 22:38:08;;;;;;;12.60;6.63;;;;;;;17.94;nan;98901.78;5029187;28;20039;-76
2022/07/13 22:41:10;;;;;;;17.50;6.35;;;;;;;17.91;nan;98896.72;5061474;28;20036;-75
2022/07/13 22:44:13;;;;;;;9.60;6.97;;;;;;;17.88;nan;98890.81;5035226;28;20072;-74
2022/07/13 22:47:16;;;;;;;10.77;6.05;;;;;;;17.85;nan;98893.88;5068492;28;20040;-74
2022/07/13 22:50:18;;;;;;;16.67;6.55;;;;;;;17.81;nan;98888.00;5063700;28;20185;-76
2022/07/13 22:53:20;;;;;;;16.25;6.20;;;;;;;17.79;nan;98887.31;5000870;28;20084;-78
2022/07/13 22:56:23;;;;;;;15.55;7.22;;;;;;;17.78;nan;98886.47;5064916;28;20146;-80
2022/07/13 22:59:25;;;;;;;14.15;6.53;;;;;;;17.80;nan;98882.78;5033800;28;20086;-79
2022/07/13 23:02:28;;;;;;;10.98;5.70;;;;;;;17.80;nan;98883.63;5059318;28;20040;-79
2022/07/13 23:05:30;;;;;;;24.63;6.50;;;;;;;17.77;nan;98882.09;5038532;28;20047;-79
2022/07/13 23:08:33;;;;;;;14.23;6.45;;;;;;;17.73;nan;98872.66;5036923;28;20059;-76
2022/07/13 23:11:35;;;;;;;11.65;5.82;;;;;;;17.68;nan;98871.53;5054792;28;20028;-76
2022/07/13 23:14:38;;;;;;;17.83;7.03;;;;;;;17.64;nan;98870.19;5020041;28;20097;-76
2022/07/13 23:17:40;;;;;;;10.80;6.25;;;;;;;17.61;nan;98875.88;5036883;28;20089;-76
2022/07/13 23:20:42;;;;;;;12.68;6.38;;;;;;;17.57;nan;98874.56;5037303;28;20417;-76
2022/07/13 23:23:45;;;;;;;13.57;6.28;;;;;;;17.51;nan;98865.28;5006610;28;20051;-76
2022/07/13 23:26:47;;;;;;;11.80;6.55;;;;;;;17.47;nan;98861.28;5066746;28;20113;-75
2022/07/13 23:29:12;;;;;;;14.38;7.35;;;;;;;17.37;nan;98866.03;5062497;28;20040;-77
2022/07/13 23:31:38;;;;;;;8.98;5.65;;;;;;;17.33;nan;98860.13;5048978;28;20052;-73
2022/07/13 23:34:04;;;;;;;17.02;6.95;;;;;;;17.30;nan;98859.63;5059513;28;20028;-74
2022/07/13 23:36:29;;;;;;;12.48;6.63;;;;;;;17.28;nan;98865.19;5059800;28;20052;-78
2022/07/13 23:38:54;;;;;;;12.13;6.22;;;;;;;17.29;nan;98852.56;5059174;28;20095;-79
2022/07/13 23:41:19;;;;;;;12.70;6.10;;;;;;;17.29;nan;98852.56;5059918;28;20039;-79
2022/07/13 23:43:45;;;;;;;12.38;6.85;;;;;;;17.29;nan;98861.47;5039203;28;20036;-72
2022/07/13 23:46:09;;;;;;;14.65;6.53;;;;;;;17.30;nan;98852.38;5057856;28;20082;-75
2022/07/13 23:48:34;;;;;;;12.02;5.65;;;;;;;17.30;nan;98859.63;5058420;28;20063;-75
2022/07/13 23:50:59;;;;;;;12.18;6.65;;;;;;;17.28;nan;98853.56;5060319;28;20044;-78
2022/07/13 23:53:24;;;;;;;9.50;5.78;;;;;;;17.27;nan;98852.72;5060544;28;20032;-77
2022/07/13 23:55:48;;;;;;;10.10;5.68;;;;;;;17.27;nan;98851.88;5060048;28;20154;-77
2022/07/13 23:58:13;;;;;;;13.52;6.43;;;;;;;17.23;nan;98848.69;5041819;28;20043;-77
